Time;durP1;ratioP1;P1;durP2;ratioP2;P2;SDS_P1;SDS_P2;PMS_P1;PMS_P2;Temp;Humidity;BMP_temperature;BMP_pressure;BME280_temperature;BME280_humidity;BME280_pressure;Samples;Min_cycle;Max_cycle;Signal;HPM_P1;HPM_P2
2021/07/23 01:22:44;;;;;;;10.82;7.70;;;;;;;18.30;64.15;96811.41;6255935;22;20023;-90
2021/07/23 01:25:15;;;;;;;10.70;7.35;;;;;;;18.26;63.85;96812.91;6272224;22;20004;-91
2021/07/23 01:27:47;;;;;;;10.75;7.85;;;;;;;18.22;64.21;96801.19;6272039;22;20008;-88
2021/07/23 01:30:15;;;;;;;10.50;7.47;;;;;;;18.18;63.81;96807.94;6269988;22;20020;-89
2021/07/23 01:32:43;;;;;;;10.95;8.18;;;;;;;18.16;63.98;96804.72;6272933;22;20004;-90
2021/07/23 01:35:12;;;;;;;9.18;7.82;;;;;;;18.14;63.90;96804.16;6273719;22;20040;-91
2021/07/23 01:37:41;;;;;;;13.75;8.00;;;;;;;18.09;63.73;96802.19;6274026;22;20011;-90
2021/07/23 01:40:10;;;;;;;9.10;7.50;;;;;;;18.03;64.44;96803.06;6273843;22;20016;-89
2021/07/23 01:42:40;;;;;;;9.10;8.10;;;;;;;17.96;64.11;96805.81;6273799;22;20020;-91
2021/07/23 01:45:10;;;;;;;10.15;8.18;;;;;;;17.90;64.42;96806.69;6273954;22;20016;-91
2021/07/23 01:47:38;;;;;;;8.45;7.13;;;;;;;17.93;66.01;96811.53;6273706;22;20008;-89
2021/07/23 01:50:07;;;;;;;8.57;7.68;;;;;;;17.99;65.13;96802.69;6274240;22;20020;-92
2021/07/23 01:52:35;;;;;;;17.65;7.63;;;;;;;18.00;64.29;96799.06;6273814;22;20038;-91
2021/07/23 01:55:03;;;;;;;11.25;7.97;;;;;;;17.95;64.10;96798.94;6274064;22;20008;-90
2021/07/23 01:57:34;;;;;;;10.85;7.68;;;;;;;17.92;64.26;96804.63;6274024;22;20015;-91
2021/07/23 02:00:05;;;;;;;8.68;7.55;;;;;;;17.88;64.24;96803.47;6274344;22;20000;-89
2021/07/23 02:02:34;;;;;;;9.23;7.20;;;;;;;17.88;65.10;96800.81;6273899;22;20016;-91
2021/07/23 02:05:03;;;;;;;11.02;7.65;;;;;;;17.85;64.56;96796.00;6274176;22;20004;-90
2021/07/23 02:07:31;;;;;;;11.75;8.77;;;;;;;17.80;64.45;96796.66;6273811;22;20023;-89
2021/07/23 02:10:02;;;;;;;13.25;7.80;;;;;;;17.75;64.36;96800.97;6274153;22;20004;-89
2021/07/23 02:12:30;;;;;;;9.75;8.35;;;;;;;17.66;64.33;96793.34;6274260;22;20004;-91
2021/07/23 02:14:58;;;;;;;9.18;7.85;;;;;;;17.63;64.75;96788.53;6274210;22;20019;-90
2021/07/23 02:25:50;;;;;;;9.23;8.13;;;;;;;17.59;64.51;96792.63;6253627;22;20004;-80
2021/07/23 02:43:04;;;;;;;11.57;8.23;;;;;;;17.44;65.10;96784.28;6231743;22;20069;-79
2021/07/23 02:48:42;;;;;;;10.57;8.65;;;;;;;17.36;67.15;96792.50;6242401;22;20055;-80
2021/07/23 03:31:42;;;;;;;8.30;6.95;;;;;;;16.93;67.39;96767.00;5790326;22;13079867;-79
2021/07/23 04:45:18;;;;;;;13.88;9.55;;;;;;;16.91;66.60;96769.03;6229427;22;20696;-81
2021/07/23 04:47:58;;;;;;;11.02;9.07;;;;;;;16.85;66.09;96770.72;6274948;22;20008;-78
2021/07/23 04:50:26;;;;;;;10.60;8.38;;;;;;;16.79;66.84;96771.53;6273132;22;20016;-78
2021/07/23 04:52:56;;;;;;;11.63;8.63;;;;;;;16.78;67.71;96783.13;6270836;22;20024;-78
2021/07/23 04:55:24;;;;;;;14.73;8.68;;;;;;;16.85;67.86;96782.03;6269228;23;20027;-80
2021/07/23 04:57:51;;;;;;;15.85;9.35;;;;;;;16.89;66.75;96777.16;6269647;22;20022;-78
2021/07/23 05:00:21;;;;;;;14.25;7.97;;;;;;;16.93;66.98;96783.63;6272007;22;20075;-78
2021/07/23 05:02:53;;;;;;;14.00;9.60;;;;;;;16.99;66.64;96781.91;6268682;23;20035;-79
2021/07/23 05:05:23;;;;;;;17.55;9.27;;;;;;;17.02;67.54;96784.13;6268916;23;20020;-80
2021/07/23 05:07:51;;;;;;;17.10;10.05;;;;;;;17.05;66.98;96781.88;6271285;22;20018;-81
2021/07/23 05:10:19;;;;;;;15.27;9.70;;;;;;;17.10;67.79;96783.84;6273038;23;20020;-81
2021/07/23 05:12:46;;;;;;;14.57;9.77;;;;;;;17.11;66.62;96774.91;6272128;23;20055;-81
2021/07/23 05:15:14;;;;;;;18.02;9.35;;;;;;;17.08;66.41;96784.06;6272145;23;20020;-81
2021/07/23 05:17:43;;;;;;;15.23;9.40;;;;;;;17.09;67.21;96783.03;6272197;22;20030;-80
2021/07/23 05:20:11;;;;;;;17.75;9.68;;;;;;;17.14;67.59;96779.72;6272278;23;20026;-81
2021/07/23 05:22:39;;;;;;;11.90;8.48;;;;;;;17.23;68.24;96780.25;6271940;23;20075;-81
2021/07/23 05:25:08;;;;;;;19.65;9.10;;;;;;;17.30;67.22;96781.81;6272539;22;20016;-80
2021/07/23 05:27:36;;;;;;;16.00;10.90;;;;;;;17.39;67.23;96779.69;6272016;22;20034;-82
2021/07/23 05:30:05;;;;;;;14.20;10.32;;;;;;;17.48;67.09;96781.00;6272741;23;20020;-81
2021/07/23 05:32:32;;;;;;;12.50;9.18;;;;;;;17.55;66.63;96780.91;6272060;23;20044;-81
2021/07/23 05:35:01;;;;;;;12.20;8.75;;;;;;;17.61;66.79;96785.31;6272662;22;20006;-81
2021/07/23 05:37:32;;;;;;;13.07;8.65;;;;;;;17.65;65.92;96783.84;6272722;22;20067;-81
2021/07/23 05:39:59;;;;;;;12.10;9.40;;;;;;;17.68;65.55;96786.03;6272812;22;20031;-81
2021/07/23 05:42:27;;;;;;;11.90;9.07;;;;;;;17.68;65.35;96780.75;6272187;23;20016;-81
2021/07/23 05:44:55;;;;;;;12.38;8.32;;;;;;;17.72;65.96;96778.47;6272736;22;20020;-80
2021/07/23 05:47:23;;;;;;;13.32;9.02;;;;;;;17.74;64.95;96780.91;6272897;22;20103;-81
2021/07/23 05:49:50;;;;;;;17.52;9.48;;;;;;;17.80;65.90;96782.63;6272822;23;20004;-81
2021/07/23 05:52:19;;;;;;;14.43;8.73;;;;;;;17.86;66.16;96784.41;6272456;23;20087;-81
2021/07/23 05:54:46;;;;;;;15.02;9.60;;;;;;;17.92;66.41;96781.69;6272385;22;20016;-80
2021/07/23 05:57:14;;;;;;;14.43;8.63;;;;;;;17.97;66.24;96777.56;6272213;22;20038;-82
2021/07/23 05:59:42;;;;;;;18.42;10.02;;;;;;;18.03;66.23;96782.75;6272321;23;20023;-81
2021/07/23 06:02:10;;;;;;;13.05;9.43;;;;;;;18.11;65.91;96776.38;6272617;23;20045;-82
2021/07/23 06:04:37;;;;;;;17.65;11.27;;;;;;;18.11;64.67;96782.44;6272270;22;20060;-81
2021/07/23 06:07:08;;;;;;;15.27;9.90;;;;;;;18.10;65.90;96783.50;6272064;22;20098;-80
2021/07/23 06:09:37;;;;;;;16.38;10.75;;;;;;;18.11;65.39;96789.56;6272466;22;20016;-82
2021/07/23 06:12:06;;;;;;;14.73;10.20;;;;;;;18.11;64.64;96785.09;6272357;23;20028;-81
2021/07/23 06:14:34;;;;;;;19.77;11.23;;;;;;;18.17;64.67;96783.38;6272233;23;20068;-81
2021/07/23 06:17:02;;;;;;;18.63;11.82;;;;;;;18.24;64.09;96788.56;6272273;22;20047;-80
2021/07/23 06:19:30;;;;;;;23.65;11.20;;;;;;;18.27;64.18;96786.28;6273001;22;20012;-82
2021/07/23 06:21:57;;;;;;;14.05;10.70;;;;;;;18.34;65.00;96788.81;6272332;23;20008;-82
2021/07/23 06:24:25;;;;;;;18.45;11.75;;;;;;;18.39;64.12;96791.59;6272196;22;20064;-82
2021/07/23 06:26:54;;;;;;;20.52;10.50;;;;;;;18.43;64.05;96784.84;6272406;22;20528;-81
2021/07/23 06:29:21;;;;;;;15.40;10.35;;;;;;;18.50;64.07;96788.16;6272267;22;20020;-81
2021/07/23 06:31:49;;;;;;;15.90;10.52;;;;;;;18.56;64.10;96777.72;6272492;23;20031;-81
2021/07/23 06:34:17;;;;;;;14.68;9.68;;;;;;;18.64;64.80;96780.03;6271912;22;20067;-81
2021/07/23 06:36:44;;;;;;;12.43;10.20;;;;;;;18.70;63.90;96779.91;6272454;22;20011;-80
2021/07/23 06:39:12;;;;;;;18.27;11.50;;;;;;;18.77;63.27;96784.28;6272528;22;20016;-81
2021/07/23 06:41:39;;;;;;;11.40;8.98;;;;;;;18.84;63.49;96777.88;6272707;23;20004;-81
2021/07/23 06:44:08;;;;;;;10.52;8.38;;;;;;;18.92;64.04;96785.47;6272533;22;20067;-81
2021/07/23 06:46:36;;;;;;;16.65;9.48;;;;;;;19.01;64.33;96788.56;6272544;22;20034;-81
2021/07/23 06:49:03;;;;;;;15.73;9.23;;;;;;;19.07;63.70;96778.91;6272514;22;20008;-81
2021/07/23 06:51:31;;;;;;;15.02;9.23;;;;;;;19.14;62.98;96782.25;6272326;23;20376;-81
2021/07/23 06:53:59;;;;;;;15.13;9.45;;;;;;;19.20;63.59;96775.19;6271661;22;20095;-82
2021/07/23 06:56:26;;;;;;;11.73;8.18;;;;;;;19.29;63.13;96779.91;6272775;22;20332;-82
2021/07/23 06:58:54;;;;;;;12.75;9.00;;;;;;;19.35;63.39;96779.00;6272409;23;20072;-82
2021/07/23 07:01:23;;;;;;;11.50;9.27;;;;;;;19.42;62.21;96778.88;6273010;22;20024;-80
2021/07/23 07:03:50;;;;;;;12.82;8.95;;;;;;;19.49;62.40;96778.72;6271919;22;20071;-81
2021/07/23 07:06:18;;;;;;;11.52;9.23;;;;;;;19.56;61.98;96776.75;6272542;22;20016;-81
2021/07/23 07:08:45;;;;;;;14.35;8.52;;;;;;;19.64;61.84;96775.59;6272299;22;20072;-82
2021/07/23 07:11:13;;;;;;;17.23;8.90;;;;;;;19.72;62.38;96775.22;6272849;22;20016;-81
2021/07/23 07:13:40;;;;;;;14.63;10.07;;;;;;;19.81;62.08;96773.00;6272493;22;20076;-82
2021/07/23 07:16:13;;;;;;;15.13;10.05;;;;;;;19.89;61.80;96773.44;6273056;22;20008;-81
2021/07/23 07:18:42;;;;;;;16.23;9.75;;;;;;;19.98;62.08;96773.06;6273179;22;20253;-81
2021/07/23 07:21:12;;;;;;;12.63;9.95;;;;;;;20.08;62.33;96775.91;6273336;22;20016;-81
2021/07/23 07:23:39;;;;;;;19.27;9.52;;;;;;;20.16;61.53;96768.38;6272680;22;20054;-82
2021/07/23 07:26:09;;;;;;;16.33;9.75;;;;;;;20.26;60.92;96766.94;6272644;22;20024;-81
2021/07/23 07:28:36;;;;;;;12.13;9.00;;;;;;;20.35;61.33;96771.59;6273079;22;20034;-82
2021/07/23 07:31:04;;;;;;;13.60;9.25;;;;;;;20.44;60.82;96774.66;6272603;22;20067;-81
2021/07/23 07:33:31;;;;;;;15.40;10.20;;;;;;;20.52;60.48;96776.09;6272527;22;20019;-82
2021/07/23 07:36:00;;;;;;;10.57;8.68;;;;;;;20.61;60.72;96780.00;6272999;22;20012;-81
2021/07/23 07:38:28;;;;;;;16.63;9.73;;;;;;;20.69;59.72;96776.94;6272908;22;20490;-82
2021/07/23 07:40:55;;;;;;;11.88;8.88;;;;;;;20.76;60.26;96774.13;6272925;22;20011;-80
2021/07/23 07:43:23;;;;;;;14.07;9.90;;;;;;;20.84;60.19;96767.59;6272776;22;20060;-81
2021/07/23 07:45:53;;;;;;;15.10;9.27;;;;;;;20.92;60.01;96764.53;6272841;22;20126;-81
2021/07/23 07:48:21;;;;;;;11.60;9.20;;;;;;;21.02;59.68;96769.19;6272874;22;20028;-81
2021/07/23 07:50:49;;;;;;;15.60;9.82;;;;;;;21.10;59.72;96763.47;6273140;22;20020;-81
2021/07/23 07:53:18;;;;;;;15.93;10.30;;;;;;;21.20;59.51;96766.25;6272658;22;20008;-82
2021/07/23 07:55:46;;;;;;;15.98;9.02;;;;;;;21.31;60.12;96770.63;6272753;22;20072;-81
2021/07/23 07:58:13;;;;;;;13.63;9.75;;;;;;;21.42;59.22;96762.84;6272816;22;20015;-81
2021/07/23 08:00:41;;;;;;;12.23;9.13;;;;;;;21.50;58.92;96759.75;6272973;22;20072;-81
2021/07/23 08:03:09;;;;;;;13.88;9.38;;;;;;;21.59;58.67;96759.06;6272301;22;20017;-82
2021/07/23 08:05:37;;;;;;;13.75;8.60;;;;;;;21.70;57.92;96762.66;6273357;22;20011;-82
2021/07/23 08:08:08;;;;;;;18.70;9.75;;;;;;;21.79;57.36;96766.44;6274763;22;20012;-82
2021/07/23 08:10:45;;;;;;;12.30;8.13;;;;;;;21.90;57.73;96767.38;6275083;22;20034;-82
2021/07/23 08:13:13;;;;;;;13.95;8.68;;;;;;;22.01;57.62;96760.31;6274897;22;20024;-81
2021/07/23 08:15:43;;;;;;;12.40;8.57;;;;;;;22.10;56.97;96764.09;6274981;22;20012;-81
2021/07/23 08:18:13;;;;;;;12.95;8.88;;;;;;;22.19;57.04;96757.31;6272982;22;20008;-81
2021/07/23 08:20:42;;;;;;;16.25;8.95;;;;;;;22.29;55.99;96755.81;6274798;22;20024;-81
2021/07/23 08:23:09;;;;;;;13.77;8.32;;;;;;;22.41;56.52;96753.78;6274416;22;20047;-82
2021/07/23 08:25:38;;;;;;;13.73;8.60;;;;;;;22.51;55.01;96751.22;6274534;22;20004;-82
2021/07/23 08:28:06;;;;;;;12.82;8.40;;;;;;;22.58;55.71;96754.44;6274675;22;20099;-81
2021/07/23 08:30:34;;;;;;;10.73;8.82;;;;;;;22.68;56.58;96745.75;6274531;22;20055;-82
2021/07/23 08:33:01;;;;;;;9.60;8.18;;;;;;;22.79;55.50;96749.28;6274400;22;20012;-82
2021/07/23 08:35:29;;;;;;;9.07;8.18;;;;;;;22.86;54.29;96743.75;6274386;22;20107;-81
2021/07/23 08:37:56;;;;;;;13.73;9.43;;;;;;;22.93;54.83;96742.44;6274760;22;20008;-81
2021/07/23 08:40:24;;;;;;;9.68;8.77;;;;;;;23.04;55.67;96743.34;6274946;22;20072;-81
2021/07/23 08:42:53;;;;;;;10.18;8.43;;;;;;;23.15;55.28;96746.84;6274501;22;20067;-81
2021/07/23 08:45:22;;;;;;;13.32;8.38;;;;;;;23.24;55.57;96750.63;6274970;22;20051;-81
2021/07/23 08:47:50;;;;;;;9.90;8.32;;;;;;;23.32;55.05;96742.16;6274747;22;20020;-81
2021/07/23 08:50:17;;;;;;;9.27;8.30;;;;;;;23.39;54.77;96736.59;6274025;23;20064;-81
2021/07/23 08:52:46;;;;;;;12.65;7.97;;;;;;;23.47;54.84;96735.28;6274168;22;20037;-82
2021/07/23 08:55:16;;;;;;;11.18;8.48;;;;;;;23.56;54.37;96739.84;6274863;22;20079;-81
2021/07/23 08:57:45;;;;;;;10.93;7.53;;;;;;;23.65;54.14;96740.13;6274133;22;20004;-82
2021/07/23 09:00:16;;;;;;;15.95;7.93;;;;;;;23.75;53.72;96740.19;6273963;22;20004;-82
2021/07/23 09:02:51;;;;;;;11.53;8.07;;;;;;;23.84;53.95;96738.63;6273583;22;20028;-80
2021/07/23 09:05:20;;;;;;;9.15;7.72;;;;;;;23.94;53.39;96745.03;6274478;22;20050;-81
2021/07/23 09:07:47;;;;;;;8.70;7.20;;;;;;;24.02;52.97;96739.97;6273841;22;20095;-81
2021/07/23 09:10:22;;;;;;;10.93;7.53;;;;;;;24.11;52.10;96742.13;6273673;22;20051;-83
2021/07/23 09:12:52;;;;;;;12.02;6.90;;;;;;;24.20;51.90;96741.31;6273687;22;20014;-81
2021/07/23 09:15:23;;;;;;;11.70;8.05;;;;;;;24.26;51.03;96729.59;6273993;22;20064;-81
2021/07/23 09:18:05;;;;;;;11.38;7.93;;;;;;;24.34;51.35;96727.50;6274003;22;20060;-81
2021/07/23 09:20:33;;;;;;;10.70;7.65;;;;;;;24.42;50.94;96726.94;6274072;22;20043;-81
2021/07/23 09:23:02;;;;;;;10.88;7.80;;;;;;;24.49;50.50;96732.84;6273588;22;20016;-82
2021/07/23 09:25:41;;;;;;;12.23;7.93;;;;;;;24.58;50.48;96730.44;6273938;22;20051;-81
2021/07/23 09:28:29;;;;;;;7.13;6.38;;;;;;;24.65;49.65;96723.75;6273947;22;20084;-82
2021/07/23 09:30:59;;;;;;;8.95;7.00;;;;;;;24.71;49.19;96719.22;6273999;22;20039;-82
2021/07/23 09:33:32;;;;;;;11.35;7.25;;;;;;;24.81;49.25;96729.06;6273729;22;20015;-81
2021/07/23 09:36:02;;;;;;;8.75;7.00;;;;;;;24.87;48.36;96718.13;6273836;22;20020;-81
2021/07/23 09:38:35;;;;;;;9.95;6.88;;;;;;;24.96;49.59;96715.69;6273941;22;20028;-81
2021/07/23 09:41:04;;;;;;;7.05;6.28;;;;;;;25.08;49.00;96710.06;6273982;22;20030;-82
2021/07/23 09:43:33;;;;;;;9.00;7.00;;;;;;;25.18;48.29;96704.69;6273739;22;20064;-82
2021/07/23 09:46:24;;;;;;;11.05;7.57;;;;;;;25.28;47.75;96701.22;6273937;22;20031;-81
2021/07/23 09:48:53;;;;;;;10.48;6.97;;;;;;;25.37;48.28;96707.56;6273993;22;20008;-81
2021/07/23 09:51:22;;;;;;;9.15;7.10;;;;;;;25.43;47.70;96709.16;6274034;22;20059;-82
2021/07/23 09:53:50;;;;;;;8.55;7.18;;;;;;;25.49;47.68;96691.22;6273426;22;20080;-82
2021/07/23 09:56:18;;;;;;;9.63;6.43;;;;;;;25.57;47.78;96692.53;6273542;22;20071;-81
2021/07/23 09:58:49;;;;;;;12.02;7.72;;;;;;;25.64;46.69;96695.69;6273704;22;20047;-82
2021/07/23 10:01:22;;;;;;;7.65;6.55;;;;;;;25.74;47.19;96698.31;6273646;22;20302;-82
2021/07/23 10:03:55;;;;;;;9.50;7.30;;;;;;;25.82;46.34;96694.22;6273737;22;20008;-81
2021/07/23 10:06:26;;;;;;;9.55;7.85;;;;;;;25.87;46.03;96691.53;6273876;22;20027;-81
2021/07/23 10:08:57;;;;;;;8.50;6.68;;;;;;;25.95;46.34;96692.84;6273588;22;20008;-82
2021/07/23 10:11:25;;;;;;;7.82;7.03;;;;;;;26.02;46.15;96693.31;6273587;22;20035;-81
2021/07/23 10:13:56;;;;;;;9.80;7.00;;;;;;;26.09;44.83;96688.47;6273479;22;20051;-81
2021/07/23 10:16:25;;;;;;;10.43;7.05;;;;;;;26.17;46.12;96685.19;6273486;22;20047;-81
2021/07/23 10:18:53;;;;;;;11.77;6.57;;;;;;;26.25;46.32;96687.25;6273291;22;20059;-81
2021/07/23 10:21:21;;;;;;;9.05;7.40;;;;;;;26.30;45.83;96678.41;6273534;22;20060;-82
2021/07/23 10:23:49;;;;;;;8.23;7.28;;;;;;;26.36;45.08;96682.63;6273035;22;20012;-82
2021/07/23 10:26:18;;;;;;;13.15;7.47;;;;;;;26.43;45.06;96666.25;6273518;22;20012;-81
2021/07/23 10:28:57;;;;;;;7.63;6.82;;;;;;;26.49;44.65;96665.91;6273312;22;20031;-82
2021/07/23 10:31:56;;;;;;;7.60;6.80;;;;;;;26.59;45.02;96669.59;6273275;22;20064;-82
2021/07/23 10:34:32;;;;;;;8.32;6.80;;;;;;;26.64;44.03;96665.00;6181334;23;20006;-82
2021/07/23 10:37:00;;;;;;;10.43;6.80;;;;;;;26.71;45.16;96660.09;6257568;22;20034;-81
2021/07/23 10:39:28;;;;;;;7.20;6.47;;;;;;;26.79;45.10;96652.56;6273449;22;20007;-82
2021/07/23 10:42:33;;;;;;;9.98;6.55;;;;;;;26.86;43.82;96658.34;6273006;22;20012;-82
2021/07/23 10:45:02;;;;;;;12.10;6.93;;;;;;;26.86;43.42;96659.16;6273280;22;20024;-81
2021/07/23 10:47:42;;;;;;;14.00;8.00;;;;;;;26.80;41.76;96654.13;6272892;22;20060;-81
2021/07/23 10:50:12;;;;;;;8.07;6.45;;;;;;;26.76;42.89;96651.22;6273156;22;20052;-82
2021/07/23 10:52:40;;;;;;;7.25;6.55;;;;;;;26.77;42.07;96644.00;6272958;22;20056;-82
2021/07/23 10:55:13;;;;;;;8.32;6.93;;;;;;;26.76;41.77;96647.75;6273094;22;20020;-81
2021/07/23 10:57:41;;;;;;;7.13;6.43;;;;;;;26.78;43.28;96642.91;6273082;22;20038;-82
2021/07/23 11:00:10;;;;;;;8.77;7.05;;;;;;;26.84;43.34;96644.47;6272921;22;20028;-82
2021/07/23 11:02:44;;;;;;;7.82;6.30;;;;;;;26.89;42.89;96639.03;6272416;22;20020;-81
2021/07/23 11:05:14;;;;;;;8.13;6.50;;;;;;;26.93;42.25;96634.72;6273217;22;20051;-81
2021/07/23 11:07:43;;;;;;;7.40;6.63;;;;;;;26.98;42.51;96631.97;6272783;22;20103;-82
2021/07/23 11:10:13;;;;;;;10.80;6.00;;;;;;;27.04;43.27;96630.03;6272860;22;20024;-82
2021/07/23 11:12:42;;;;;;;7.75;6.28;;;;;;;27.08;43.10;96629.16;6273315;22;20008;-81
2021/07/23 11:15:12;;;;;;;7.68;6.53;;;;;;;27.10;41.20;96623.53;6272987;22;20027;-82
2021/07/23 11:17:58;;;;;;;9.70;7.00;;;;;;;27.09;41.49;96620.06;6272770;22;20038;-82
2021/07/23 11:20:36;;;;;;;9.40;6.72;;;;;;;27.08;41.64;96618.47;6273228;22;20048;-81
2021/07/23 11:23:05;;;;;;;9.38;7.28;;;;;;;27.05;40.70;96613.69;6272583;22;20036;-82
2021/07/23 11:25:33;;;;;;;9.77;6.50;;;;;;;27.00;40.10;96615.63;6272713;22;20005;-82
2021/07/23 11:28:03;;;;;;;9.68;6.38;;;;;;;26.94;40.48;96606.88;6272703;22;20043;-82
2021/07/23 11:30:36;;;;;;;10.32;6.72;;;;;;;26.89;40.81;96606.91;6273032;22;20083;-82
2021/07/23 11:33:07;;;;;;;11.65;7.25;;;;;;;26.84;41.70;96607.78;6272420;22;20065;-82
2021/07/23 11:35:41;;;;;;;26.27;7.65;;;;;;;26.83;42.37;96605.38;6272752;23;20016;-82
2021/07/23 11:38:13;;;;;;;21.23;7.97;;;;;;;26.84;42.25;96607.78;6273165;22;20008;-81
2021/07/23 11:40:41;;;;;;;7.47;6.47;;;;;;;26.87;41.61;96604.56;6273413;22;20024;-81
2021/07/23 11:43:19;;;;;;;8.98;6.90;;;;;;;26.90;41.50;96601.28;6274392;22;20071;-81
2021/07/23 11:45:47;;;;;;;10.48;6.65;;;;;;;26.91;42.14;96596.72;6275033;22;20021;-82
2021/07/23 11:48:16;;;;;;;11.10;6.70;;;;;;;26.90;40.95;96606.66;6274631;22;20064;-81
2021/07/23 11:50:52;;;;;;;8.93;6.90;;;;;;;26.91;41.38;96586.03;6274600;22;20016;-81
2021/07/23 11:53:20;;;;;;;9.27;7.78;;;;;;;26.94;43.08;96588.13;6274529;22;20067;-82
2021/07/23 11:55:48;;;;;;;10.80;7.05;;;;;;;26.98;42.10;96586.47;6274889;22;20052;-82
2021/07/23 11:58:23;;;;;;;7.93;7.10;;;;;;;26.99;41.54;96580.03;6274740;22;20008;-81
2021/07/23 12:00:50;;;;;;;9.57;6.60;;;;;;;27.02;42.31;96575.97;6274885;22;20068;-82
2021/07/23 12:03:21;;;;;;;8.13;6.90;;;;;;;27.04;41.13;96574.59;6275059;22;20012;-81
2021/07/23 12:05:49;;;;;;;11.00;6.65;;;;;;;27.03;41.32;96567.66;6275539;22;20004;-81
2021/07/23 12:08:17;;;;;;;7.93;6.90;;;;;;;27.07;41.67;96568.69;6275304;22;20152;-81
2021/07/23 12:10:47;;;;;;;11.40;7.57;;;;;;;27.11;41.22;96559.00;6275311;22;20015;-81
2021/07/23 12:13:16;;;;;;;12.60;7.57;;;;;;;27.18;41.33;96557.81;6274599;22;20014;-81
2021/07/23 12:15:46;;;;;;;8.98;6.90;;;;;;;27.25;40.65;96556.41;6274368;22;20443;-82
2021/07/23 12:18:16;;;;;;;10.10;6.50;;;;;;;27.33;41.45;96562.97;6273402;22;20026;-82
2021/07/23 12:20:45;;;;;;;9.25;7.57;;;;;;;27.38;40.56;96554.91;6275040;22;20028;-81
2021/07/23 12:23:23;;;;;;;8.27;6.85;;;;;;;27.44;40.08;96555.59;6274805;22;20039;-81
2021/07/23 12:25:50;;;;;;;7.55;6.68;;;;;;;27.46;40.25;96554.25;6274654;22;20075;-81
2021/07/23 12:28:18;;;;;;;9.20;7.28;;;;;;;27.49;40.11;96539.47;6274294;22;20064;-81
2021/07/23 12:30:48;;;;;;;11.18;7.22;;;;;;;27.53;40.83;96549.31;6273729;22;20020;-82
2021/07/23 12:33:17;;;;;;;8.18;6.55;;;;;;;27.59;41.29;96541.16;6274332;22;20037;-81
2021/07/23 12:35:50;;;;;;;7.65;6.85;;;;;;;27.62;41.36;96543.28;6274981;22;20019;-82
2021/07/23 12:38:18;;;;;;;9.40;6.80;;;;;;;27.64;40.76;96544.56;6274753;22;20072;-81
2021/07/23 12:40:47;;;;;;;9.77;7.10;;;;;;;27.68;39.49;96542.09;6275132;22;20008;-81
2021/07/23 12:43:17;;;;;;;11.38;6.72;;;;;;;27.73;39.75;96542.03;6274643;22;20008;-81
2021/07/23 12:45:45;;;;;;;10.07;7.47;;;;;;;27.76;38.95;96540.63;6274562;22;20022;-81
2021/07/23 12:48:13;;;;;;;9.75;7.50;;;;;;;27.79;38.95;96545.41;6274347;22;20004;-81
2021/07/23 12:50:41;;;;;;;12.90;7.40;;;;;;;27.80;40.05;96539.75;6274111;22;20027;-81
2021/07/23 12:53:12;;;;;;;9.70;6.88;;;;;;;27.82;39.02;96540.25;6273244;23;20023;-82
2021/07/23 12:55:39;;;;;;;7.40;6.20;;;;;;;27.86;39.74;96530.56;6274362;22;20100;-81
2021/07/23 12:58:07;;;;;;;11.93;7.30;;;;;;;27.88;38.92;96528.41;6273209;22;20030;-82
2021/07/23 13:00:35;;;;;;;10.60;6.90;;;;;;;27.89;38.81;96529.97;6273846;22;20008;-82
2021/07/23 13:03:03;;;;;;;9.73;7.50;;;;;;;27.92;38.95;96523.22;6274152;22;20012;-82
2021/07/23 13:05:34;;;;;;;10.82;7.05;;;;;;;27.97;39.32;96519.66;6273785;22;20020;-81
2021/07/23 13:08:07;;;;;;;9.82;6.63;;;;;;;28.02;39.66;96516.91;6273459;22;20003;-82
2021/07/23 13:10:37;;;;;;;8.20;6.63;;;;;;;28.05;38.66;96510.94;6273252;23;20068;-81
2021/07/23 13:13:04;;;;;;;11.00;7.38;;;;;;;28.05;38.88;96506.34;6272960;23;20031;-81
2021/07/23 13:15:32;;;;;;;10.35;7.35;;;;;;;28.07;38.14;96514.91;6273467;22;20071;-81
2021/07/23 13:18:00;;;;;;;8.57;7.18;;;;;;;28.05;38.81;96511.72;6273212;22;20068;-82
2021/07/23 13:20:27;;;;;;;9.68;7.60;;;;;;;28.03;38.69;96502.38;6272738;23;20020;-82
2021/07/23 13:22:55;;;;;;;9.85;7.03;;;;;;;28.03;39.31;96507.75;6272640;22;20072;-82
2021/07/23 13:25:22;;;;;;;10.27;6.78;;;;;;;28.03;38.83;96507.75;6273559;23;20031;-81
2021/07/23 13:27:51;;;;;;;10.35;7.60;;;;;;;28.00;39.10;96505.66;6272931;22;20004;-82
2021/07/23 13:30:20;;;;;;;9.20;6.80;;;;;;;27.97;37.56;96499.03;6269744;22;20020;-82
2021/07/23 13:32:48;;;;;;;8.55;7.38;;;;;;;27.91;37.89;96498.31;6267216;23;20047;-82
2021/07/23 13:35:15;;;;;;;7.80;7.00;;;;;;;27.86;37.92;96495.72;6266687;23;20024;-82
2021/07/23 13:37:47;;;;;;;9.32;7.35;;;;;;;27.81;37.55;96503.03;6267770;22;20028;-82
2021/07/23 13:40:16;;;;;;;10.75;6.88;;;;;;;27.77;37.72;96500.16;6267361;23;20030;-82
2021/07/23 13:43:04;;;;;;;9.27;7.43;;;;;;;27.73;37.96;96501.81;6267142;23;20020;-81
2021/07/23 13:45:34;;;;;;;7.82;6.82;;;;;;;27.71;38.22;96498.66;6266961;23;20023;-82
2021/07/23 13:48:02;;;;;;;12.25;7.10;;;;;;;27.66;37.43;96482.63;6268886;22;20020;-82
2021/07/23 13:50:30;;;;;;;10.88;7.45;;;;;;;27.58;37.48;96486.00;6267521;23;20027;-82
2021/07/23 13:52:57;;;;;;;8.45;6.43;;;;;;;27.51;37.61;96481.81;6267364;23;20079;-82
2021/07/23 13:55:25;;;;;;;7.97;6.93;;;;;;;27.48;37.48;96477.03;6266043;23;20020;-82
2021/07/23 13:57:53;;;;;;;8.23;7.05;;;;;;;27.44;37.64;96481.41;6267314;22;20020;-81
2021/07/23 14:00:22;;;;;;;11.15;7.20;;;;;;;27.39;37.66;96473.44;6266728;23;20089;-81
2021/07/23 14:02:50;;;;;;;9.43;7.65;;;;;;;27.33;38.64;96472.75;6266166;23;20030;-82
2021/07/23 14:05:22;;;;;;;11.25;7.38;;;;;;;27.31;38.82;96471.41;6266364;23;20023;-82
2021/07/23 14:07:50;;;;;;;12.18;7.88;;;;;;;27.27;38.79;96460.50;6266077;22;20023;-82
2021/07/23 14:10:17;;;;;;;15.13;7.97;;;;;;;27.24;38.98;96468.31;6266807;23;20008;-82
2021/07/23 14:12:45;;;;;;;13.50;8.40;;;;;;;27.19;39.53;96458.47;6267364;23;20049;-82
2021/07/23 14:15:13;;;;;;;18.33;8.52;;;;;;;27.16;40.24;96456.38;6267245;23;20030;-82
2021/07/23 14:17:43;;;;;;;19.50;8.35;;;;;;;27.13;40.31;96457.75;6252507;22;20017;-86
2021/07/23 14:20:15;;;;;;;8.48;7.18;;;;;;;27.11;40.43;96465.28;6218100;23;20021;-87
2021/07/23 14:22:48;;;;;;;10.23;7.20;;;;;;;27.09;41.05;96459.44;6218125;23;20017;-85
2021/07/23 14:25:21;;;;;;;12.45;7.25;;;;;;;27.06;40.54;96454.63;6217793;23;20044;-85
2021/07/23 14:27:52;;;;;;;14.00;8.00;;;;;;;27.05;40.65;96452.28;6217875;23;20074;-87
2021/07/23 14:30:26;;;;;;;10.85;7.28;;;;;;;27.03;40.61;96449.09;6217939;23;20016;-85
2021/07/23 14:32:57;;;;;;;17.67;7.82;;;;;;;27.02;40.40;96455.50;6218035;23;20474;-87
2021/07/23 14:35:29;;;;;;;15.05;7.38;;;;;;;27.01;40.05;96446.69;6218565;23;20016;-87
2021/07/23 14:38:05;;;;;;;10.20;7.63;;;;;;;27.01;40.82;96445.91;6218299;23;20025;-86
2021/07/23 14:40:33;;;;;;;8.95;7.22;;;;;;;26.99;39.51;96440.06;6218508;23;20028;-87
2021/07/23 14:43:07;;;;;;;9.25;7.15;;;;;;;26.97;38.98;96442.22;6218414;23;20403;-85
2021/07/23 14:45:39;;;;;;;10.55;7.57;;;;;;;26.96;40.23;96443.28;6219460;23;20094;-86
2021/07/23 14:48:11;;;;;;;10.88;7.32;;;;;;;26.98;40.52;96446.47;6218175;23;20035;-86
2021/07/23 14:50:39;;;;;;;9.18;7.63;;;;;;;26.98;40.55;96447.25;6217225;23;20020;-87
2021/07/23 14:53:13;;;;;;;8.20;6.93;;;;;;;26.99;40.16;96442.72;6216725;23;20045;-86
2021/07/23 14:55:49;;;;;;;10.32;7.63;;;;;;;26.97;39.57;96444.91;6218130;23;20088;-85
2021/07/23 14:58:31;;;;;;;9.52;6.90;;;;;;;26.96;39.97;96443.28;6217567;23;20023;-88
2021/07/23 15:01:01;;;;;;;7.80;6.75;;;;;;;26.96;41.26;96438.75;6217138;23;20031;-85
2021/07/23 15:03:36;;;;;;;11.60;8.05;;;;;;;26.98;40.38;96431.19;6216947;23;20022;-87
2021/07/23 15:06:06;;;;;;;9.48;6.75;;;;;;;26.98;40.72;96436.56;6216688;23;20016;-86
2021/07/23 15:08:43;;;;;;;13.25;8.38;;;;;;;26.98;41.12;96425.84;6216540;23;20028;-85
2021/07/23 15:11:17;;;;;;;11.52;7.57;;;;;;;27.00;40.72;96429.03;6217029;23;20016;-86
2021/07/23 15:13:47;;;;;;;11.15;7.82;;;;;;;26.99;40.37;96427.47;6216607;23;20024;-85
2021/07/23 15:16:18;;;;;;;9.45;6.93;;;;;;;26.98;40.50;96428.53;6216717;23;20360;-87
2021/07/23 15:18:54;;;;;;;7.70;6.90;;;;;;;26.96;39.83;96424.56;6217304;23;20024;-87